sensor_id;sensor_type;location;lat;lon;timestamp;pressure;altitude;pressure_sealevel;temperature;humidity
68871;BME280;55906;52.278;6.808;2023-02-02T00:02:06;101842.13;;;6.98;78.84
68871;BME280;55906;52.278;6.808;2023-02-02T00:04:34;101840.31;;;6.97;78.48
68871;BME280;55906;52.278;6.808;2023-02-02T00:07:03;101849.16;;;6.99;78.26
68871;BME280;55906;52.278;6.808;2023-02-02T00:09:32;101848.81;;;6.93;79.11
68871;BME280;55906;52.278;6.808;2023-02-02T00:11:59;101848.72;;;6.91;79.21
68871;BME280;55906;52.278;6.808;2023-02-02T00:14:26;101846.09;;;6.91;78.81
68871;BME280;55906;52.278;6.808;2023-02-02T00:16:53;101854.94;;;6.93;80.11
68871;BME280;55906;52.278;6.808;2023-02-02T00:19:22;101852.97;;;6.89;80.04
68871;BME280;55906;52.278;6.808;2023-02-02T00:21:50;101857.38;;;6.90;80.13
68871;BME280;55906;52.278;6.808;2023-02-02T00:24:19;101846.75;;;6.87;80.97
68871;BME280;55906;52.278;6.808;2023-02-02T00:26:47;101851.97;;;6.87;81.69
68871;BME280;55906;52.278;6.808;2023-02-02T00:29:16;101841.53;;;6.87;81.04
68871;BME280;55906;52.278;6.808;2023-02-02T00:31:43;101846.66;;;6.86;81.64
68871;BME280;55906;52.278;6.808;2023-02-02T00:34:11;101837.91;;;6.85;81.73
68871;BME280;55906;52.278;6.808;2023-02-02T00:36:38;101845.94;;;6.88;81.83
68871;BME280;55906;52.278;6.808;2023-02-02T00:39:05;101846.41;;;6.81;82.12
68871;BME280;55906;52.278;6.808;2023-02-02T00:41:33;101843.53;;;6.77;82.78
68871;BME280;55906;52.278;6.808;2023-02-02T00:43:59;101844.34;;;6.76;83.04
68871;BME280;55906;52.278;6.808;2023-02-02T00:46:43;101846.06;;;6.75;83.31
68871;BME280;55906;52.278;6.808;2023-02-02T00:49:10;101851.94;;;6.71;83.53
68871;BME280;55906;52.278;6.808;2023-02-02T00:51:37;101852.56;;;6.67;83.07
68871;BME280;55906;52.278;6.808;2023-02-02T00:54:04;101850.69;;;6.64;84.25
68871;BME280;55906;52.278;6.808;2023-02-02T00:56:32;101857.44;;;6.61;84.00
68871;BME280;55906;52.278;6.808;2023-02-02T00:58:59;101851.22;;;6.59;85.16
68871;BME280;55906;52.278;6.808;2023-02-02T01:01:25;101853.66;;;6.56;84.92
68871;BME280;55906;52.278;6.808;2023-02-02T01:03:52;101855.47;;;6.57;84.98
68871;BME280;55906;52.278;6.808;2023-02-02T01:06:19;101857.81;;;6.52;85.58
68871;BME280;55906;52.278;6.808;2023-02-02T01:08:46;101861.13;;;6.50;85.45
68871;BME280;55906;52.278;6.808;2023-02-02T01:11:13;101852.50;;;6.51;86.16
68871;BME280;55906;52.278;6.808;2023-02-02T01:13:41;101855.88;;;6.50;86.41
68871;BME280;55906;52.278;6.808;2023-02-02T01:16:08;101854.09;;;6.49;86.89
68871;BME280;55906;52.278;6.808;2023-02-02T01:18:35;101860.22;;;6.49;87.21
68871;BME280;55906;52.278;6.808;2023-02-02T01:21:04;101863.13;;;6.54;87.82
68871;BME280;55906;52.278;6.808;2023-02-02T01:23:31;101865.66;;;6.52;87.72
68871;BME280;55906;52.278;6.808;2023-02-02T01:26:00;101860.69;;;6.57;87.91
68871;BME280;55906;52.278;6.808;2023-02-02T01:28:27;101850.22;;;6.57;88.53
68871;BME280;55906;52.278;6.808;2023-02-02T01:30:56;101855.00;;;6.64;87.62
68871;BME280;55906;52.278;6.808;2023-02-02T01:33:23;101854.38;;;6.68;88.23
68871;BME280;55906;52.278;6.808;2023-02-02T01:35:52;101857.16;;;6.71;88.62
68871;BME280;55906;52.278;6.808;2023-02-02T01:38:19;101858.50;;;6.79;88.85
68871;BME280;55906;52.278;6.808;2023-02-02T01:40:48;101853.34;;;6.81;88.67
68871;BME280;55906;52.278;6.808;2023-02-02T01:43:21;101861.38;;;6.84;89.65
68871;BME280;55906;52.278;6.808;2023-02-02T01:45:49;101860.00;;;6.90;89.61
68871;BME280;55906;52.278;6.808;2023-02-02T01:48:17;101862.78;;;6.93;89.92
68871;BME280;55906;52.278;6.808;2023-02-02T01:50:46;101862.22;;;6.99;89.83
68871;BME280;55906;52.278;6.808;2023-02-02T01:53:16;101865.03;;;7.02;89.21
68871;BME280;55906;52.278;6.808;2023-02-02T01:55:46;101864.38;;;7.06;89.42
68871;BME280;55906;52.278;6.808;2023-02-02T01:58:17;101874.09;;;7.09;89.52
68871;BME280;55906;52.278;6.808;2023-02-02T02:00:44;101868.41;;;7.16;89.71
68871;BME280;55906;52.278;6.808;2023-02-02T02:03:13;101872.00;;;7.18;89.33
68871;BME280;55906;52.278;6.808;2023-02-02T02:05:44;101878.31;;;7.21;89.71
68871;BME280;55906;52.278;6.808;2023-02-02T02:08:16;101875.22;;;7.28;89.17
68871;BME280;55906;52.278;6.808;2023-02-02T02:10:43;101884.94;;;7.31;89.01
68871;BME280;55906;52.278;6.808;2023-02-02T02:13:10;101876.38;;;7.33;89.59
68871;BME280;55906;52.278;6.808;2023-02-02T02:15:42;101880.88;;;7.36;88.51
68871;BME280;55906;52.278;6.808;2023-02-02T02:18:34;101884.56;;;7.39;88.62
68871;BME280;55906;52.278;6.808;2023-02-02T02:21:31;101876.78;;;7.41;88.67
68871;BME280;55906;52.278;6.808;2023-02-02T02:28:32;101871.22;;;7.51;87.85
68871;BME280;55906;52.278;6.808;2023-02-02T02:31:21;101866.81;;;7.50;87.77
68871;BME280;55906;52.278;6.808;2023-02-02T02:33:59;101865.25;;;7.54;87.94
68871;BME280;55906;52.278;6.808;2023-02-02T02:36:33;101854.88;;;7.55;88.57
68871;BME280;55906;52.278;6.808;2023-02-02T02:39:09;101865.44;;;7.57;88.18
68871;BME280;55906;52.278;6.808;2023-02-02T02:41:41;101852.41;;;7.58;87.27
68871;BME280;55906;52.278;6.808;2023-02-02T02:44:13;101858.56;;;7.59;87.75
68871;BME280;55906;52.278;6.808;2023-02-02T02:46:41;101859.38;;;7.58;87.56
68871;BME280;55906;52.278;6.808;2023-02-02T02:49:10;101862.06;;;7.59;87.29
68871;BME280;55906;52.278;6.808;2023-02-02T02:51:41;101856.00;;;7.60;87.56
68871;BME280;55906;52.278;6.808;2023-02-02T02:54:09;101853.22;;;7.57;86.98
68871;BME280;55906;52.278;6.808;2023-02-02T02:56:43;101852.59;;;7.61;86.81
68871;BME280;55906;52.278;6.808;2023-02-02T02:59:25;101849.31;;;7.65;86.84
68871;BME280;55906;52.278;6.808;2023-02-02T03:02:00;101851.94;;;7.65;86.73
68871;BME280;55906;52.278;6.808;2023-02-02T03:04:36;101855.59;;;7.69;86.32
68871;BME280;55906;52.278;6.808;2023-02-02T03:07:09;101863.53;;;7.70;86.16
68871;BME280;55906;52.278;6.808;2023-02-02T03:09:41;101861.00;;;7.72;85.90
68871;BME280;55906;52.278;6.808;2023-02-02T03:12:09;101864.69;;;7.76;86.61
68871;BME280;55906;52.278;6.808;2023-02-02T03:14:36;101866.97;;;7.69;86.46
68871;BME280;55906;52.278;6.808;2023-02-02T03:17:03;101867.16;;;7.72;86.15
68871;BME280;55906;52.278;6.808;2023-02-02T03:19:31;101865.59;;;7.76;86.41
68871;BME280;55906;52.278;6.808;2023-02-02T03:21:58;101865.66;;;7.78;86.40
68871;BME280;55906;52.278;6.808;2023-02-02T03:24:25;101863.88;;;7.77;85.69
68871;BME280;55906;52.278;6.808;2023-02-02T03:26:52;101863.31;;;7.82;85.59
68871;BME280;55906;52.278;6.808;2023-02-02T03:29:18;101868.72;;;7.85;86.02
68871;BME280;55906;52.278;6.808;2023-02-02T03:31:46;101873.88;;;7.84;85.85
68871;BME280;55906;52.278;6.808;2023-02-02T03:34:12;101865.88;;;7.81;86.02
68871;BME280;55906;52.278;6.808;2023-02-02T03:36:40;101867.66;;;7.82;86.27
68871;BME280;55906;52.278;6.808;2023-02-02T03:39:07;101871.72;;;7.77;86.28
68871;BME280;55906;52.278;6.808;2023-02-02T03:41:33;101877.78;;;7.76;86.73
68871;BME280;55906;52.278;6.808;2023-02-02T03:44:00;101882.94;;;7.74;86.89
68871;BME280;55906;52.278;6.808;2023-02-02T03:46:27;101880.91;;;7.68;87.72
68871;BME280;55906;52.278;6.808;2023-02-02T03:48:53;101874.69;;;7.66;88.14
68871;BME280;55906;52.278;6.808;2023-02-02T03:51:20;101869.28;;;7.63;88.11
68871;BME280;55906;52.278;6.808;2023-02-02T03:53:48;101875.97;;;7.58;88.53
68871;BME280;55906;52.278;6.808;2023-02-02T03:56:15;101866.06;;;7.53;88.74
68871;BME280;55906;52.278;6.808;2023-02-02T03:58:43;101880.56;;;7.46;89.11
68871;BME280;55906;52.278;6.808;2023-02-02T04:01:12;101868.13;;;7.42;89.61
68871;BME280;55906;52.278;6.808;2023-02-02T04:03:39;101873.19;;;7.39;90.28
68871;BME280;55906;52.278;6.808;2023-02-02T04:06:05;101863.19;;;7.32;91.36
68871;BME280;55906;52.278;6.808;2023-02-02T04:08:32;101863.19;;;7.32;90.96
68871;BME280;55906;52.278;6.808;2023-02-02T04:11:01;101866.63;;;7.31;91.63
68871;BME280;55906;52.278;6.808;2023-02-02T04:13:27;101863.84;;;7.28;91.57
68871;BME280;55906;52.278;6.808;2023-02-02T04:15:58;101867.28;;;7.27;91.92
68871;BME280;55906;52.278;6.808;2023-02-02T04:18:25;101860.97;;;7.23;91.63
68871;BME280;55906;52.278;6.808;2023-02-02T04:20:55;101855.81;;;7.25;91.98
68871;BME280;55906;52.278;6.808;2023-02-02T04:23:23;101856.47;;;7.21;92.40
68871;BME280;55906;52.278;6.808;2023-02-02T04:25:50;101861.22;;;7.28;91.30
68871;BME280;55906;52.278;6.808;2023-02-02T04:28:18;101862.03;;;7.27;91.85
68871;BME280;55906;52.278;6.808;2023-02-02T04:30:46;101872.44;;;7.25;92.38
68871;BME280;55906;52.278;6.808;2023-02-02T04:33:13;101875.84;;;7.24;92.18
68871;BME280;55906;52.278;6.808;2023-02-02T04:35:41;101871.28;;;7.20;92.56
68871;BME280;55906;52.278;6.808;2023-02-02T04:38:08;101872.25;;;7.22;92.58
68871;BME280;55906;52.278;6.808;2023-02-02T04:40:37;101866.22;;;7.23;93.17
68871;BME280;55906;52.278;6.808;2023-02-02T04:43:04;101867.66;;;7.18;93.83
68871;BME280;55906;52.278;6.808;2023-02-02T04:45:32;101873.97;;;7.22;93.71
68871;BME280;55906;52.278;6.808;2023-02-02T04:47:58;101870.28;;;7.18;94.34
68871;BME280;55906;52.278;6.808;2023-02-02T04:50:25;101866.78;;;7.18;94.26
68871;BME280;55906;52.278;6.808;2023-02-02T04:52:52;101865.13;;;7.20;94.68
68871;BME280;55906;52.278;6.808;2023-02-02T04:55:18;101873.06;;;7.21;93.91
68871;BME280;55906;52.278;6.808;2023-02-02T04:57:45;101873.97;;;7.22;94.32
68871;BME280;55906;52.278;6.808;2023-02-02T05:00:13;101863.34;;;7.19;94.78
68871;BME280;55906;52.278;6.808;2023-02-02T05:02:41;101869.56;;;7.21;94.53
68871;BME280;55906;52.278;6.808;2023-02-02T05:05:10;101874.97;;;7.24;94.79
68871;BME280;55906;52.278;6.808;2023-02-02T05:07:38;101867.75;;;7.20;94.87
68871;BME280;55906;52.278;6.808;2023-02-02T05:10:06;101868.75;;;7.22;95.08
68871;BME280;55906;52.278;6.808;2023-02-02T05:12:33;101869.81;;;7.25;94.44
68871;BME280;55906;52.278;6.808;2023-02-02T05:14:59;101873.50;;;7.29;94.54
68871;BME280;55906;52.278;6.808;2023-02-02T05:17:28;101863.13;;;7.30;94.12
68871;BME280;55906;52.278;6.808;2023-02-02T05:19:56;101868.34;;;7.30;94.21
68871;BME280;55906;52.278;6.808;2023-02-02T05:22:23;101872.03;;;7.34;94.81
68871;BME280;55906;52.278;6.808;2023-02-02T05:24:49;101866.97;;;7.37;94.79
68871;BME280;55906;52.278;6.808;2023-02-02T05:27:16;101874.00;;;7.38;94.33
68871;BME280;55906;52.278;6.808;2023-02-02T05:29:42;101877.69;;;7.42;94.82
68871;BME280;55906;52.278;6.808;2023-02-02T05:32:09;101889.16;;;7.44;94.01
68871;BME280;55906;52.278;6.808;2023-02-02T05:34:36;101876.94;;;7.44;94.44
68871;BME280;55906;52.278;6.808;2023-02-02T05:37:04;101880.63;;;7.48;94.56
68871;BME280;55906;52.278;6.808;2023-02-02T05:39:30;101877.13;;;7.47;94.79
68871;BME280;55906;52.278;6.808;2023-02-02T05:41:57;101879.75;;;7.47;94.37
68871;BME280;55906;52.278;6.808;2023-02-02T05:44:23;101885.97;;;7.49;94.65
68871;BME280;55906;52.278;6.808;2023-02-02T05:46:50;101873.13;;;7.54;94.52
68871;BME280;55906;52.278;6.808;2023-02-02T05:49:17;101873.69;;;7.48;94.76
68871;BME280;55906;52.278;6.808;2023-02-02T05:51:45;101877.63;;;7.56;94.84
68871;BME280;55906;52.278;6.808;2023-02-02T05:54:14;101884.75;;;7.59;95.10
68871;BME280;55906;52.278;6.808;2023-02-02T05:56:44;101881.31;;;7.60;94.75
68871;BME280;55906;52.278;6.808;2023-02-02T05:59:11;101874.19;;;7.57;95.82
68871;BME280;55906;52.278;6.808;2023-02-02T06:01:38;101880.47;;;7.61;95.46
68871;BME280;55906;52.278;6.808;2023-02-02T06:04:05;101878.19;;;7.67;95.99
68871;BME280;55906;52.278;6.808;2023-02-02T06:06:31;101880.25;;;7.72;95.29
68871;BME280;55906;52.278;6.808;2023-02-02T06:09:00;101879.41;;;7.74;95.84
68871;BME280;55906;52.278;6.808;2023-02-02T06:11:28;101878.75;;;7.78;95.83
68871;BME280;55906;52.278;6.808;2023-02-02T06:13:55;101882.38;;;7.80;95.97
68871;BME280;55906;52.278;6.808;2023-02-02T06:16:21;101881.75;;;7.84;95.69
68871;BME280;55906;52.278;6.808;2023-02-02T06:18:48;101879.28;;;7.87;95.60
68871;BME280;55906;52.278;6.808;2023-02-02T06:21:15;101879.28;;;7.87;95.80
68871;BME280;55906;52.278;6.808;2023-02-02T06:23:44;101888.38;;;7.93;95.76
68871;BME280;55906;52.278;6.808;2023-02-02T06:26:11;101889.34;;;7.95;95.31
68871;BME280;55906;52.278;6.808;2023-02-02T06:28:39;101882.31;;;7.94;95.58
68871;BME280;55906;52.278;6.808;2023-02-02T06:31:07;101885.91;;;7.96;95.28
68871;BME280;55906;52.278;6.808;2023-02-02T06:33:35;101889.50;;;7.98;95.52
68871;BME280;55906;52.278;6.808;2023-02-02T06:36:03;101886.81;;;7.97;95.10
68871;BME280;55906;52.278;6.808;2023-02-02T06:38:31;101898.19;;;7.97;95.76
68871;BME280;55906;52.278;6.808;2023-02-02T06:40:58;101899.09;;;7.98;95.30
68871;BME280;55906;52.278;6.808;2023-02-02T06:43:25;101905.31;;;8.00;95.73
68871;BME280;55906;52.278;6.808;2023-02-02T06:45:53;101897.28;;;7.97;95.51
68871;BME280;55906;52.278;6.808;2023-02-02T06:48:19;101908.09;;;8.03;95.47
68871;BME280;55906;52.278;6.808;2023-02-02T06:50:46;101907.19;;;8.02;95.33
68871;BME280;55906;52.278;6.808;2023-02-02T06:53:13;101910.56;;;8.00;95.35
68871;BME280;55906;52.278;6.808;2023-02-02T06:55:40;101911.69;;;8.05;95.79
68871;BME280;55906;52.278;6.808;2023-02-02T06:58:06;101915.88;;;8.01;95.56
68871;BME280;55906;52.278;6.808;2023-02-02T07:00:33;101923.97;;;8.06;95.54
68871;BME280;55906;52.278;6.808;2023-02-02T07:03:03;101918.75;;;8.06;95.90
68871;BME280;55906;52.278;6.808;2023-02-02T07:05:30;101926.94;;;7.96;96.09
68871;BME280;55906;52.278;6.808;2023-02-02T07:07:57;101929.47;;;7.94;95.52
68871;BME280;55906;52.278;6.808;2023-02-02T07:10:23;101924.31;;;7.96;95.48
68871;BME280;55906;52.278;6.808;2023-02-02T07:12:52;101923.31;;;7.94;95.57
68871;BME280;55906;52.278;6.808;2023-02-02T07:15:19;101937.41;;;7.96;94.88
68871;BME280;55906;52.278;6.808;2023-02-02T07:17:46;101932.91;;;7.93;95.03
68871;BME280;55906;52.278;6.808;2023-02-02T07:20:15;101935.59;;;7.95;95.33
68871;BME280;55906;52.278;6.808;2023-02-02T07:22:42;101953.94;;;7.95;95.43
68871;BME280;55906;52.278;6.808;2023-02-02T07:25:08;101946.91;;;7.94;95.31
68871;BME280;55906;52.278;6.808;2023-02-02T07:27:35;101940.84;;;7.95;95.31
68871;BME280;55906;52.278;6.808;2023-02-02T07:30:01;101939.22;;;7.97;94.85
68871;BME280;55906;52.278;6.808;2023-02-02T07:32:29;101945.84;;;7.90;94.82
68871;BME280;55906;52.278;6.808;2023-02-02T07:34:55;101951.16;;;7.92;95.28
68871;BME280;55906;52.278;6.808;2023-02-02T07:37:23;101954.75;;;7.94;95.38
68871;BME280;55906;52.278;6.808;2023-02-02T07:39:50;101947.72;;;7.93;94.97
68871;BME280;55906;52.278;6.808;2023-02-02T07:42:17;101953.88;;;7.93;95.08
68871;BME280;55906;52.278;6.808;2023-02-02T07:44:44;101954.44;;;7.88;94.86
68871;BME280;55906;52.278;6.808;2023-02-02T07:47:10;101966.16;;;7.94;95.24
68871;BME280;55906;52.278;6.808;2023-02-02T07:49:37;101955.66;;;7.94;94.81
68871;BME280;55906;52.278;6.808;2023-02-02T07:52:04;101966.97;;;7.93;95.10
68871;BME280;55906;52.278;6.808;2023-02-02T07:54:32;101965.25;;;7.94;95.02
68871;BME280;55906;52.278;6.808;2023-02-02T07:56:59;101977.38;;;7.92;94.87
68871;BME280;55906;52.278;6.808;2023-02-02T07:59:26;101975.72;;;7.94;94.80
68871;BME280;55906;52.278;6.808;2023-02-02T08:01:53;101979.16;;;7.93;94.97
68871;BME280;55906;52.278;6.808;2023-02-02T08:04:19;101971.13;;;7.90;94.79
68871;BME280;55906;52.278;6.808;2023-02-02T08:06:46;101979.81;;;7.89;94.68
68871;BME280;55906;52.278;6.808;2023-02-02T08:09:12;101990.38;;;7.90;94.49
68871;BME280;55906;52.278;6.808;2023-02-02T08:11:40;101986.22;;;7.94;94.72
68871;BME280;55906;52.278;6.808;2023-02-02T08:14:09;101983.59;;;7.94;94.25
68871;BME280;55906;52.278;6.808;2023-02-02T08:16:37;101989.81;;;7.96;94.77
68871;BME280;55906;52.278;6.808;2023-02-02T08:19:03;101995.88;;;7.95;94.36
68871;BME280;55906;52.278;6.808;2023-02-02T08:21:31;102000.28;;;7.96;94.44
68871;BME280;55906;52.278;6.808;2023-02-02T08:23:58;102005.53;;;7.96;94.69
68871;BME280;55906;52.278;6.808;2023-02-02T08:26:26;101996.94;;;7.98;94.13
68871;BME280;55906;52.278;6.808;2023-02-02T08:28:56;102010.13;;;8.00;94.51
68871;BME280;55906;52.278;6.808;2023-02-02T08:31:25;102013.47;;;7.97;93.78
68871;BME280;55906;52.278;6.808;2023-02-02T08:33:53;102008.41;;;8.00;94.19
68871;BME280;55906;52.278;6.808;2023-02-02T08:36:23;102011.94;;;8.01;93.84
68871;BME280;55906;52.278;6.808;2023-02-02T08:38:50;102016.19;;;7.99;94.20
68871;BME280;55906;52.278;6.808;2023-02-02T08:41:20;102014.38;;;7.98;94.41
68871;BME280;55906;52.278;6.808;2023-02-02T08:43:47;102021.25;;;7.96;93.65
68871;BME280;55906;52.278;6.808;2023-02-02T08:46:17;102031.91;;;7.99;93.70
68871;BME280;55906;52.278;6.808;2023-02-02T08:48:44;102032.81;;;7.99;94.01
68871;BME280;55906;52.278;6.808;2023-02-02T08:51:12;102035.25;;;7.96;93.41
68871;BME280;55906;52.278;6.808;2023-02-02T08:53:43;102043.84;;;7.94;93.67
68871;BME280;55906;52.278;6.808;2023-02-02T08:56:12;102046.56;;;7.95;93.45
68871;BME280;55906;52.278;6.808;2023-02-02T08:58:43;102042.38;;;7.99;93.82
68871;BME280;55906;52.278;6.808;2023-02-02T09:01:13;102046.56;;;7.95;93.78
68871;BME280;55906;52.278;6.808;2023-02-02T09:03:41;102045.81;;;7.98;93.87
68871;BME280;55906;52.278;6.808;2023-02-02T09:06:10;102050.25;;;7.99;94.20
68871;BME280;55906;52.278;6.808;2023-02-02T09:08:37;102048.69;;;8.02;93.61
68871;BME280;55906;52.278;6.808;2023-02-02T09:11:05;102050.41;;;8.02;94.06
68871;BME280;55906;52.278;6.808;2023-02-02T09:13:33;102047.28;;;7.93;93.92
68871;BME280;55906;52.278;6.808;2023-02-02T09:16:00;102050.16;;;7.97;93.68
68871;BME280;55906;52.278;6.808;2023-02-02T09:18:26;102054.09;;;8.06;93.97
68871;BME280;55906;52.278;6.808;2023-02-02T09:20:58;102062.22;;;8.10;93.80
68871;BME280;55906;52.278;6.808;2023-02-02T09:23:25;102066.47;;;8.08;93.16
68871;BME280;55906;52.278;6.808;2023-02-02T09:25:52;102069.09;;;8.08;93.69
68871;BME280;55906;52.278;6.808;2023-02-02T09:28:19;102067.38;;;8.09;93.56
68871;BME280;55906;52.278;6.808;2023-02-02T09:30:45;102070.91;;;8.09;93.53
68871;BME280;55906;52.278;6.808;2023-02-02T09:33:12;102076.31;;;8.12;93.23
68871;BME280;55906;52.278;6.808;2023-02-02T09:35:39;102077.47;;;8.17;93.62
68871;BME280;55906;52.278;6.808;2023-02-02T09:38:06;102082.88;;;8.20;93.38
68871;BME280;55906;52.278;6.808;2023-02-02T09:40:34;102075.75;;;8.18;93.13
68871;BME280;55906;52.278;6.808;2023-02-02T09:43:05;102096.16;;;8.23;93.62
68871;BME280;55906;52.278;6.808;2023-02-02T09:45:38;102098.84;;;8.25;93.10
68871;BME280;55906;52.278;6.808;2023-02-02T09:48:19;102102.47;;;8.27;93.25
68871;BME280;55906;52.278;6.808;2023-02-02T09:50:53;102105.97;;;8.27;93.22
68871;BME280;55906;52.278;6.808;2023-02-02T09:53:27;102106.06;;;8.29;93.32
68871;BME280;55906;52.278;6.808;2023-02-02T09:55:57;102116.53;;;8.29;93.48
68871;BME280;55906;52.278;6.808;2023-02-02T09:58:27;102108.97;;;8.33;93.20
68871;BME280;55906;52.278;6.808;2023-02-02T10:01:01;102122.69;;;8.29;93.30
68871;BME280;55906;52.278;6.808;2023-02-02T10:03:33;102108.06;;;8.33;93.12
68871;BME280;55906;52.278;6.808;2023-02-02T10:06:05;102127.41;;;8.35;93.30
68871;BME280;55906;52.278;6.808;2023-02-02T10:08:42;102114.22;;;8.33;92.93
68871;BME280;55906;52.278;6.808;2023-02-02T10:11:32;102117.00;;;8.37;93.88
68871;BME280;55906;52.278;6.808;2023-02-02T10:14:04;102122.66;;;8.44;93.69
68871;BME280;55906;52.278;6.808;2023-02-02T10:16:34;102128.25;;;8.50;94.24
68871;BME280;55906;52.278;6.808;2023-02-02T10:19:03;102128.41;;;8.53;94.13
68871;BME280;55906;52.278;6.808;2023-02-02T10:21:34;102136.59;;;8.59;94.12
68871;BME280;55906;52.278;6.808;2023-02-02T10:24:13;102137.75;;;8.64;93.76
68871;BME280;55906;52.278;6.808;2023-02-02T10:26:45;102135.94;;;8.63;93.70
68871;BME280;55906;52.278;6.808;2023-02-02T10:29:15;102147.69;;;8.70;93.75
68871;BME280;55906;52.278;6.808;2023-02-02T10:31:48;102148.66;;;8.72;93.78
68871;BME280;55906;52.278;6.808;2023-02-02T10:34:23;102156.63;;;8.74;93.45
68871;BME280;55906;52.278;6.808;2023-02-02T10:37:02;102150.88;;;8.81;93.30
68871;BME280;55906;52.278;6.808;2023-02-02T10:39:47;102155.22;;;8.80;93.49
68871;BME280;55906;52.278;6.808;2023-02-02T10:42:24;102164.97;;;8.83;93.74
68871;BME280;55906;52.278;6.808;2023-02-02T10:44:55;102155.13;;;8.79;93.70
68871;BME280;55906;52.278;6.808;2023-02-02T10:47:25;102159.00;;;8.85;93.65
68871;BME280;55906;52.278;6.808;2023-02-02T10:50:00;102158.09;;;8.85;93.72
68871;BME280;55906;52.278;6.808;2023-02-02T10:52:32;102158.25;;;8.88;93.64
68871;BME280;55906;52.278;6.808;2023-02-02T10:55:05;102157.69;;;8.93;93.76
68871;BME280;55906;52.278;6.808;2023-02-02T10:57:44;102167.84;;;8.87;93.63
68871;BME280;55906;52.278;6.808;2023-02-02T11:00:19;102156.69;;;8.91;92.78
68871;BME280;55906;52.278;6.808;2023-02-02T11:02:46;102152.50;;;8.95;92.99
68871;BME280;55906;52.278;6.808;2023-02-02T11:05:19;102159.66;;;8.97;92.99
68871;BME280;55906;52.278;6.808;2023-02-02T11:08:13;102158.16;;;9.03;92.77
68871;BME280;55906;52.278;6.808;2023-02-02T11:10:42;102157.19;;;9.01;92.73
68871;BME280;55906;52.278;6.808;2023-02-02T11:13:18;102161.59;;;9.02;92.46
68871;BME280;55906;52.278;6.808;2023-02-02T11:15:47;102155.38;;;8.99;92.16
68871;BME280;55906;52.278;6.808;2023-02-02T11:18:26;102153.06;;;9.06;92.54
68871;BME280;55906;52.278;6.808;2023-02-02T11:20:53;102154.22;;;8.94;92.55
68871;BME280;55906;52.278;6.808;2023-02-02T11:23:20;102155.38;;;8.99;92.50
68871;BME280;55906;52.278;6.808;2023-02-02T11:25:58;102165.97;;;9.01;92.30
68871;BME280;55906;52.278;6.808;2023-02-02T11:28:26;102143.91;;;8.97;92.44
68871;BME280;55906;52.278;6.808;2023-02-02T11:30:56;102156.94;;;8.96;92.56
68871;BME280;55906;52.278;6.808;2023-02-02T11:33:27;102145.88;;;9.02;92.57
68871;BME280;55906;52.278;6.808;2023-02-02T11:35:56;102158.00;;;8.99;92.56
68871;BME280;55906;52.278;6.808;2023-02-02T11:38:23;102153.81;;;9.03;92.22
68871;BME280;55906;52.278;6.808;2023-02-02T11:40:57;102153.81;;;9.03;92.25
68871;BME280;55906;52.278;6.808;2023-02-02T11:43:28;102158.00;;;8.99;92.36
68871;BME280;55906;52.278;6.808;2023-02-02T11:45:58;102164.91;;;8.97;93.02
68871;BME280;55906;52.278;6.808;2023-02-02T11:48:30;102154.56;;;9.01;92.64
68871;BME280;55906;52.278;6.808;2023-02-02T11:50:59;102163.50;;;9.04;92.91
68871;BME280;55906;52.278;6.808;2023-02-02T11:53:28;102157.34;;;9.04;92.37
68871;BME280;55906;52.278;6.808;2023-02-02T11:55:59;102152.25;;;9.07;92.77
68871;BME280;55906;52.278;6.808;2023-02-02T11:58:27;102153.06;;;9.06;92.53
68871;BME280;55906;52.278;6.808;2023-02-02T12:00:57;102162.50;;;9.02;92.86
68871;BME280;55906;52.278;6.808;2023-02-02T12:03:30;102166.19;;;9.06;92.96
68871;BME280;55906;52.278;6.808;2023-02-02T12:05:58;102169.31;;;8.98;92.75
68871;BME280;55906;52.278;6.808;2023-02-02T12:08:26;102170.38;;;9.02;93.41
68871;BME280;55906;52.278;6.808;2023-02-02T12:10:58;102175.72;;;9.04;93.35
68871;BME280;55906;52.278;6.808;2023-02-02T12:13:40;102169.41;;;9.00;92.81
68871;BME280;55906;52.278;6.808;2023-02-02T12:16:27;102172.03;;;9.00;93.34
68871;BME280;55906;52.278;6.808;2023-02-02T12:19:07;102172.03;;;9.00;93.59
68871;BME280;55906;52.278;6.808;2023-02-02T12:21:46;102180.88;;;9.02;93.81
68871;BME280;55906;52.278;6.808;2023-02-02T12:24:26;102172.09;;;9.02;93.79
68871;BME280;55906;52.278;6.808;2023-02-02T12:27:03;102169.56;;;9.03;93.56
68871;BME280;55906;52.278;6.808;2023-02-02T12:29:44;102167.75;;;9.02;93.71
68871;BME280;55906;52.278;6.808;2023-02-02T12:32:26;102167.94;;;9.05;93.81
68871;BME280;55906;52.278;6.808;2023-02-02T12:35:11;102169.31;;;8.98;93.84
68871;BME280;55906;52.278;6.808;2023-02-02T12:37:53;102166.13;;;9.04;93.93
68871;BME280;55906;52.278;6.808;2023-02-02T12:40:38;102167.03;;;9.05;93.67
68871;BME280;55906;52.278;6.808;2023-02-02T12:43:17;102159.97;;;9.04;93.75
68871;BME280;55906;52.278;6.808;2023-02-02T12:45:59;102163.56;;;9.06;93.58
68871;BME280;55906;52.278;6.808;2023-02-02T12:48:38;102150.22;;;9.01;94.07
68871;BME280;55906;52.278;6.808;2023-02-02T12:51:18;102157.03;;;8.97;94.15
68871;BME280;55906;52.278;6.808;2023-02-02T12:54:10;102153.81;;;9.03;93.89
68871;BME280;55906;52.278;6.808;2023-02-02T12:56:44;102158.16;;;9.03;93.91
68871;BME280;55906;52.278;6.808;2023-02-02T12:59:23;102155.38;;;8.99;94.07
68871;BME280;55906;52.278;6.808;2023-02-02T13:02:02;102145.19;;;9.06;94.21
68871;BME280;55906;52.278;6.808;2023-02-02T13:04:49;102144.13;;;9.02;94.23
68871;BME280;55906;52.278;6.808;2023-02-02T13:07:35;102151.13;;;9.02;94.02
68871;BME280;55906;52.278;6.808;2023-02-02T13:10:20;102150.78;;;8.95;94.10
68871;BME280;55906;52.278;6.808;2023-02-02T13:12:52;102159.66;;;8.97;94.09
68871;BME280;55906;52.278;6.808;2023-02-02T13:15:31;102155.13;;;8.95;94.27
68871;BME280;55906;52.278;6.808;2023-02-02T13:18:00;102158.81;;;8.98;94.40
68871;BME280;55906;52.278;6.808;2023-02-02T13:20:36;102157.84;;;8.96;94.41